Time;durP1;ratioP1;P1;durP2;ratioP2;P2;SDS_P1;SDS_P2;PMS_P1;PMS_P2;Temp;Humidity;BMP_temperature;BMP_pressure;BME280_temperature;BME280_humidity;BME280_pressure;Samples;Min_cycle;Max_cycle;Signal;HPM_P1;HPM_P2
2021/11/21 00:02:04;;;;;;;24.17;14.57;;;;;;;;;;5027563;28;20040;-68
2021/11/21 00:04:29;;;;;;;25.17;13.73;;;;;;;;;;5025640;28;20104;-69
2021/11/21 00:06:54;;;;;;;34.95;14.02;;;;;;;;;;5027621;28;20149;-69
2021/11/21 00:09:21;;;;;;;25.42;13.52;;;;;;;;;;5025346;28;20049;-68
2021/11/21 00:11:46;;;;;;;26.08;12.98;;;;;;;;;;5026603;28;20444;-70
2021/11/21 00:14:11;;;;;;;30.95;13.07;;;;;;;;;;5021143;28;20436;-68
2021/11/21 00:16:37;;;;;;;33.10;13.75;;;;;;;;;;5027794;28;20030;-68
2021/11/21 00:19:02;;;;;;;27.48;13.52;;;;;;;;;;5027352;28;20116;-68
2021/11/21 00:21:27;;;;;;;21.10;13.60;;;;;;;;;;5029780;28;20017;-68
2021/11/21 00:23:53;;;;;;;25.38;13.48;;;;;;;;;;5020780;28;20739;-68
2021/11/21 00:26:18;;;;;;;25.23;13.40;;;;;;;;;;5032195;28;20071;-68
2021/11/21 00:28:44;;;;;;;27.00;14.23;;;;;;;;;;5028497;28;20481;-68
2021/11/21 00:31:09;;;;;;;28.42;13.85;;;;;;;;;;5021643;28;20025;-69
2021/11/21 00:33:34;;;;;;;23.95;13.73;;;;;;;;;;5020861;28;20044;-69
2021/11/21 00:35:59;;;;;;;24.98;14.32;;;;;;;;;;5026606;28;20469;-68
2021/11/21 00:38:25;;;;;;;26.45;13.88;;;;;;;;;;5021945;28;20040;-69
2021/11/21 00:40:52;;;;;;;26.05;13.55;;;;;;;;;;5026136;28;20030;-70
2021/11/21 00:43:17;;;;;;;30.42;16.25;;;;;;;;;;5022061;28;20032;-69
2021/11/21 00:45:42;;;;;;;23.80;14.75;;;;;;;;;;5021265;28;20021;-67
2021/11/21 00:48:08;;;;;;;36.88;13.77;;;;;;;;;;5024366;28;20048;-69
2021/11/21 00:50:33;;;;;;;22.77;12.45;;;;;;;;;;5027391;28;20028;-69
2021/11/21 00:53:03;;;;;;;20.38;11.55;;;;;;;;;;5017944;28;20033;-69
2021/11/21 00:55:34;;;;;;;41.35;13.23;;;;;;;;;;5022837;28;20065;-68
2021/11/21 00:57:59;;;;;;;30.15;13.30;;;;;;;;;;5024191;28;20393;-68
2021/11/21 01:00:24;;;;;;;27.08;13.05;;;;;;;;;;5027618;28;20022;-67
2021/11/21 01:02:50;;;;;;;25.05;13.85;;;;;;;;;;5026663;28;20160;-68
2021/11/21 01:05:15;;;;;;;25.38;15.38;;;;;;;;;;5027405;28;20236;-68
2021/11/21 01:07:40;;;;;;;29.67;14.02;;;;;;;;;;5030502;28;20453;-69
2021/11/21 01:10:16;;;;;;;39.10;14.90;;;;;;;;;;5030983;28;20029;-70
2021/11/21 01:12:41;;;;;;;23.48;13.15;;;;;;;;;;5031087;28;20486;-68
2021/11/21 01:15:07;;;;;;;24.17;12.30;;;;;;;;;;5027681;28;20176;-68
2021/11/21 01:17:33;;;;;;;20.33;10.07;;;;;;;;;;5027743;28;20034;-69
2021/11/21 01:20:01;;;;;;;23.10;10.18;;;;;;;;;;5031421;28;20061;-67
2021/11/21 01:22:27;;;;;;;25.02;10.40;;;;;;;;;;5022391;28;20164;-67
2021/11/21 01:24:53;;;;;;;24.17;10.50;;;;;;;;;;5027677;28;20060;-68
2021/11/21 01:27:18;;;;;;;30.00;11.32;;;;;;;;;;5024953;28;20034;-69
2021/11/21 01:29:43;;;;;;;48.72;12.40;;;;;;;;;;5029442;28;20026;-69
2021/11/21 01:32:08;;;;;;;30.20;12.02;;;;;;;;;;5031032;28;20030;-68
2021/11/21 01:34:33;;;;;;;28.92;11.98;;;;;;;;;;5028232;28;20092;-68
2021/11/21 01:36:59;;;;;;;37.78;14.05;;;;;;;;;;5027105;28;20037;-68
2021/11/21 01:39:24;;;;;;;24.35;11.93;;;;;;;;;;5026890;28;20462;-68
2021/11/21 01:41:49;;;;;;;23.15;11.30;;;;;;;;;;5029339;28;20041;-69
2021/11/21 01:44:16;;;;;;;28.33;12.43;;;;;;;;;;5029634;28;20557;-69
2021/11/21 01:46:42;;;;;;;22.95;12.38;;;;;;;;;;5025553;28;20132;-68
2021/11/21 01:49:08;;;;;;;22.38;11.13;;;;;;;;;;5029935;28;20112;-69
2021/11/21 01:51:34;;;;;;;31.85;12.25;;;;;;;;;;5023959;28;20435;-68
2021/11/21 01:53:59;;;;;;;30.15;12.65;;;;;;;;;;5028837;28;20067;-69
2021/11/21 01:56:26;;;;;;;34.45;12.88;;;;;;;;;;5029273;28;20033;-67
2021/11/21 01:58:52;;;;;;;32.88;13.23;;;;;;;;;;5025936;28;20072;-68
2021/11/21 02:01:17;;;;;;;40.38;13.27;;;;;;;;;;5034228;28;20025;-68
2021/11/21 02:03:43;;;;;;;28.45;11.85;;;;;;;;;;5030791;28;20101;-69
2021/11/21 02:06:08;;;;;;;20.35;11.30;;;;;;;;;;5026936;28;20053;-68
2021/11/21 02:08:33;;;;;;;29.63;12.82;;;;;;;;;;5027700;28;20045;-68
2021/11/21 02:10:59;;;;;;;39.75;11.77;;;;;;;;;;5028319;28;20053;-68
2021/11/21 02:13:24;;;;;;;16.58;9.38;;;;;;;;;;5027019;28;20031;-68
2021/11/21 02:15:49;;;;;;;15.90;9.75;;;;;;;;;;5030655;28;20113;-68
2021/11/21 02:18:15;;;;;;;16.58;9.52;;;;;;;;;;5027145;28;20025;-68
2021/11/21 02:20:40;;;;;;;15.30;9.65;;;;;;;;;;5029667;28;20026;-69
2021/11/21 02:23:06;;;;;;;16.25;10.07;;;;;;;;;;5019370;28;20392;-68
2021/11/21 02:25:32;;;;;;;15.30;9.40;;;;;;;;;;5033863;28;20030;-67
2021/11/21 02:27:57;;;;;;;16.30;9.63;;;;;;;;;;5029374;28;20037;-68
2021/11/21 02:30:23;;;;;;;14.77;9.25;;;;;;;;;;5032211;28;20028;-67
2021/11/21 02:32:49;;;;;;;13.38;8.63;;;;;;;;;;5030480;28;20033;-68
2021/11/21 02:35:15;;;;;;;12.45;8.60;;;;;;;;;;5023984;28;20812;-68
2021/11/21 02:37:40;;;;;;;13.25;8.57;;;;;;;;;;5027908;28;20045;-68
2021/11/21 02:40:06;;;;;;;14.60;8.88;;;;;;;;;;5021749;28;20155;-68
2021/11/21 02:42:34;;;;;;;13.30;8.48;;;;;;;;;;5029429;28;20036;-67
2021/11/21 02:44:59;;;;;;;13.43;8.93;;;;;;;;;;5023876;28;20117;-69
2021/11/21 02:47:31;;;;;;;15.15;9.43;;;;;;;;;;5027409;28;20179;-69
2021/11/21 02:49:56;;;;;;;13.63;8.75;;;;;;;;;;5018656;28;20037;-69
2021/11/21 02:52:22;;;;;;;15.82;10.20;;;;;;;;;;5028394;28;20017;-68
2021/11/21 02:54:51;;;;;;;13.55;9.10;;;;;;;;;;5021238;28;20115;-68
2021/11/21 02:57:16;;;;;;;17.67;10.55;;;;;;;;;;5018152;28;20076;-68
2021/11/21 02:59:41;;;;;;;18.65;10.13;;;;;;;;;;5028503;28;20037;-68
2021/11/21 03:02:07;;;;;;;16.23;9.10;;;;;;;;;;5029647;28;20029;-69
2021/11/21 03:04:32;;;;;;;15.90;9.43;;;;;;;;;;5024898;28;20032;-68
2021/11/21 03:06:57;;;;;;;20.10;9.98;;;;;;;;;;5025946;28;20041;-68
2021/11/21 03:09:22;;;;;;;16.13;10.02;;;;;;;;;;5021137;28;20139;-68
2021/11/21 03:11:48;;;;;;;18.13;9.48;;;;;;;;;;5022009;28;20045;-68
2021/11/21 03:14:13;;;;;;;26.35;10.15;;;;;;;;;;5025635;28;20109;-68
2021/11/21 03:16:38;;;;;;;17.88;10.07;;;;;;;;;;5026329;28;20025;-68
2021/11/21 03:19:03;;;;;;;25.60;11.65;;;;;;;;;;5027919;28;20040;-69
2021/11/21 03:21:28;;;;;;;19.25;10.98;;;;;;;;;;5027774;28;20026;-68
2021/11/21 03:23:54;;;;;;;17.08;9.15;;;;;;;;;;5026668;28;20024;-68
2021/11/21 03:26:21;;;;;;;14.27;8.85;;;;;;;;;;5024228;28;20028;-68
2021/11/21 03:28:46;;;;;;;14.70;8.77;;;;;;;;;;5027682;28;20048;-68
2021/11/21 03:31:11;;;;;;;14.15;8.52;;;;;;;;;;5032372;28;20389;-69
2021/11/21 03:33:38;;;;;;;15.35;9.43;;;;;;;;;;5020412;28;20385;-68
2021/11/21 03:36:03;;;;;;;17.65;10.73;;;;;;;;;;5027010;28;20067;-68
2021/11/21 03:38:29;;;;;;;13.32;9.05;;;;;;;;;;5028298;28;20431;-69
2021/11/21 03:40:54;;;;;;;13.55;8.43;;;;;;;;;;5028178;28;20028;-69
2021/11/21 03:43:19;;;;;;;12.88;8.77;;;;;;;;;;5023251;28;20029;-69
2021/11/21 03:45:44;;;;;;;12.05;7.88;;;;;;;;;;5028031;28;21704;-69
2021/11/21 03:48:10;;;;;;;12.25;8.25;;;;;;;;;;5028115;28;20467;-69
2021/11/21 03:50:35;;;;;;;10.52;7.40;;;;;;;;;;5028222;28;20036;-68
2021/11/21 03:53:00;;;;;;;11.10;7.68;;;;;;;;;;5024705;28;20021;-69
2021/11/21 03:55:26;;;;;;;11.30;7.82;;;;;;;;;;5021728;28;20025;-68
2021/11/21 03:57:52;;;;;;;11.98;7.82;;;;;;;;;;5026905;28;20033;-68
2021/11/21 04:00:21;;;;;;;12.90;7.82;;;;;;;;;;5017582;28;20026;-68
2021/11/21 04:02:47;;;;;;;10.40;6.82;;;;;;;;;;5008226;28;20436;-68
2021/11/21 04:05:13;;;;;;;11.45;7.93;;;;;;;;;;5020432;28;20041;-68
2021/11/21 04:07:39;;;;;;;13.88;8.55;;;;;;;;;;5018114;28;20042;-68
2021/11/21 04:10:05;;;;;;;13.93;8.50;;;;;;;;;;5027333;28;20028;-68
2021/11/21 04:12:30;;;;;;;20.77;7.78;;;;;;;;;;5028327;28;20558;-67
2021/11/21 04:14:55;;;;;;;11.90;7.57;;;;;;;;;;5028487;28;20025;-68
2021/11/21 04:17:21;;;;;;;26.25;8.60;;;;;;;;;;5028554;28;20362;-68
2021/11/21 04:19:46;;;;;;;13.63;6.88;;;;;;;;;;5027546;28;20160;-68
2021/11/21 04:22:11;;;;;;;17.58;6.78;;;;;;;;;;5017594;28;20033;-67
2021/11/21 04:24:36;;;;;;;11.50;6.82;;;;;;;;;;5028011;28;20040;-68
2021/11/21 04:27:02;;;;;;;16.98;6.63;;;;;;;;;;5027499;28;20026;-68
2021/11/21 04:29:27;;;;;;;21.92;7.25;;;;;;;;;;5025279;28;20116;-67
2021/11/21 04:31:54;;;;;;;35.92;7.75;;;;;;;;;;5027895;28;20116;-67
2021/11/21 04:34:19;;;;;;;22.60;6.93;;;;;;;;;;5028130;28;20033;-68
2021/11/21 04:36:44;;;;;;;12.60;7.38;;;;;;;;;;5028404;28;20108;-69
2021/11/21 04:39:09;;;;;;;10.75;6.82;;;;;;;;;;5030995;28;20037;-67
2021/11/21 04:41:35;;;;;;;35.90;8.55;;;;;;;;;;5031545;28;20026;-68
2021/11/21 04:44:02;;;;;;;14.70;7.28;;;;;;;;;;5032120;28;20491;-68
2021/11/21 04:46:27;;;;;;;24.88;8.05;;;;;;;;;;5032052;28;20029;-68
2021/11/21 04:48:53;;;;;;;20.90;7.40;;;;;;;;;;5031072;28;20033;-68
2021/11/21 04:51:18;;;;;;;21.60;8.02;;;;;;;;;;5026135;28;20033;-69
2021/11/21 04:53:43;;;;;;;22.67;7.72;;;;;;;;;;5020831;28;20037;-69
2021/11/21 04:56:08;;;;;;;22.33;7.60;;;;;;;;;;5031940;28;20026;-67
2021/11/21 04:58:34;;;;;;;21.55;7.72;;;;;;;;;;5031088;28;20017;-68
2021/11/21 05:00:59;;;;;;;45.90;10.10;;;;;;;;;;5031689;28;20136;-68
2021/11/21 05:03:24;;;;;;;31.23;8.48;;;;;;;;;;5031048;28;20048;-68
2021/11/21 05:05:50;;;;;;;41.40;9.30;;;;;;;;;;5029409;28;20080;-68
2021/11/21 05:08:15;;;;;;;18.50;8.75;;;;;;;;;;5031464;28;20041;-67
2021/11/21 05:10:40;;;;;;;29.13;9.63;;;;;;;;;;5028949;28;20122;-69
2021/11/21 05:13:06;;;;;;;21.48;7.38;;;;;;;;;;5029079;28;20032;-69
2021/11/21 05:15:31;;;;;;;28.90;9.32;;;;;;;;;;5023892;28;20426;-68
2021/11/21 05:17:56;;;;;;;18.17;8.13;;;;;;;;;;5027617;28;20052;-67
2021/11/21 05:20:21;;;;;;;27.27;8.90;;;;;;;;;;5029773;28;20342;-68
2021/11/21 05:22:47;;;;;;;81.57;11.60;;;;;;;;;;5029221;28;20025;-67
2021/11/21 05:25:13;;;;;;;65.90;10.90;;;;;;;;;;5022746;28;20364;-67
2021/11/21 05:27:38;;;;;;;25.88;8.85;;;;;;;;;;5031043;28;20094;-68
2021/11/21 05:30:04;;;;;;;24.58;8.88;;;;;;;;;;5024183;28;20041;-66
2021/11/21 05:32:30;;;;;;;41.20;9.02;;;;;;;;;;5032093;28;20040;-68
2021/11/21 05:34:55;;;;;;;40.67;9.27;;;;;;;;;;5028356;28;20041;-67
2021/11/21 05:37:20;;;;;;;26.90;8.43;;;;;;;;;;5022932;28;20477;-68
2021/11/21 05:39:45;;;;;;;27.83;7.95;;;;;;;;;;5030483;28;20040;-68
2021/11/21 05:42:11;;;;;;;68.63;9.63;;;;;;;;;;5040050;28;20037;-68
2021/11/21 05:44:36;;;;;;;59.45;8.60;;;;;;;;;;5034878;28;20017;-68
2021/11/21 05:47:02;;;;;;;24.40;7.38;;;;;;;;;;5029576;28;20030;-68
2021/11/21 05:49:27;;;;;;;32.03;8.18;;;;;;;;;;5030970;28;20021;-69
2021/11/21 05:51:52;;;;;;;31.80;8.13;;;;;;;;;;5028916;28;20474;-68
2021/11/21 05:54:17;;;;;;;10.80;6.50;;;;;;;;;;5024057;28;20048;-68
2021/11/21 05:56:43;;;;;;;36.35;6.90;;;;;;;;;;5026450;28;20033;-67
2021/11/21 05:59:08;;;;;;;22.02;7.30;;;;;;;;;;5029341;28;20040;-67
2021/11/21 06:01:33;;;;;;;32.22;7.43;;;;;;;;;;5030150;28;20476;-67
2021/11/21 06:03:58;;;;;;;11.05;6.90;;;;;;;;;;5028965;28;21731;-68
2021/11/21 06:06:24;;;;;;;29.35;7.35;;;;;;;;;;5016838;28;20077;-67
2021/11/21 06:08:49;;;;;;;22.92;7.05;;;;;;;;;;5029762;28;20111;-67
2021/11/21 06:11:15;;;;;;;24.60;7.78;;;;;;;;;;5020361;28;20449;-68
2021/11/21 06:13:40;;;;;;;38.20;7.68;;;;;;;;;;5028546;28;20441;-68
2021/11/21 06:16:05;;;;;;;23.73;7.22;;;;;;;;;;5030523;28;20045;-68
2021/11/21 06:18:31;;;;;;;25.75;8.35;;;;;;;;;;5029747;28;20051;-67
2021/11/21 06:20:56;;;;;;;23.52;8.05;;;;;;;;;;5029508;28;20037;-67
2021/11/21 06:23:21;;;;;;;27.27;7.75;;;;;;;;;;5022921;28;20017;-68
2021/11/21 06:25:47;;;;;;;33.55;7.85;;;;;;;;;;5030425;28;20029;-67
2021/11/21 06:28:12;;;;;;;18.55;7.68;;;;;;;;;;5025633;28;20045;-68
2021/11/21 06:30:38;;;;;;;17.70;7.68;;;;;;;;;;5029092;28;20112;-69
2021/11/21 06:33:04;;;;;;;30.13;8.27;;;;;;;;;;5021957;28;20485;-68
2021/11/21 06:35:29;;;;;;;21.63;7.57;;;;;;;;;;5026856;28;20056;-67
2021/11/21 06:37:54;;;;;;;30.88;8.98;;;;;;;;;;5028532;28;20028;-69
2021/11/21 06:40:19;;;;;;;13.75;7.72;;;;;;;;;;5024199;28;20109;-67
2021/11/21 06:42:45;;;;;;;14.07;6.80;;;;;;;;;;5024375;28;20061;-69
2021/11/21 06:45:11;;;;;;;16.08;6.63;;;;;;;;;;5021972;28;20022;-69
2021/11/21 06:47:37;;;;;;;17.27;6.63;;;;;;;;;;5020800;28;20025;-68
2021/11/21 06:50:04;;;;;;;63.85;8.75;;;;;;;;;;5023111;28;20083;-68
2021/11/21 06:52:30;;;;;;;19.38;6.57;;;;;;;;;;5018568;28;20029;-68
2021/11/21 06:54:56;;;;;;;54.22;8.60;;;;;;;;;;5017721;28;20057;-68
2021/11/21 06:57:21;;;;;;;28.52;7.60;;;;;;;;;;5023966;28;20017;-68
2021/11/21 06:59:46;;;;;;;18.95;7.00;;;;;;;;;;5023164;28;20438;-68
2021/11/21 07:02:12;;;;;;;10.50;7.18;;;;;;;;;;5018065;28;20018;-68
2021/11/21 07:04:37;;;;;;;38.28;8.05;;;;;;;;;;5023638;28;20017;-68
2021/11/21 07:07:06;;;;;;;35.08;7.75;;;;;;;;;;5015434;28;20046;-69
2021/11/21 07:09:31;;;;;;;21.30;7.35;;;;;;;;;;5019388;28;20389;-69
2021/11/21 07:11:56;;;;;;;18.70;7.57;;;;;;;;;;5014374;28;20026;-68
2021/11/21 07:14:22;;;;;;;23.20;7.15;;;;;;;;;;5019356;28;20775;-68
2021/11/21 07:16:49;;;;;;;11.80;7.30;;;;;;;;;;5019789;28;20143;-70
2021/11/21 07:19:14;;;;;;;13.85;7.50;;;;;;;;;;5018432;28;20437;-70
2021/11/21 07:21:39;;;;;;;13.50;7.68;;;;;;;;;;5014218;28;20014;-68
2021/11/21 07:24:05;;;;;;;10.43;7.13;;;;;;;;;;5019932;28;20017;-69
2021/11/21 07:26:30;;;;;;;11.82;7.38;;;;;;;;;;5016967;28;20080;-68
2021/11/21 07:28:55;;;;;;;33.13;8.52;;;;;;;;;;5024046;28;20115;-68
2021/11/21 07:31:21;;;;;;;20.95;7.93;;;;;;;;;;5033387;28;20376;-69
2021/11/21 07:33:46;;;;;;;10.05;6.80;;;;;;;;;;5023565;28;20029;-68
2021/11/21 07:36:11;;;;;;;10.77;6.45;;;;;;;;;;5021914;28;20017;-67
2021/11/21 07:38:37;;;;;;;13.02;7.28;;;;;;;;;;5020742;28;20018;-68
2021/11/21 07:41:03;;;;;;;10.88;6.80;;;;;;;;;;5028559;28;20041;-67
2021/11/21 07:43:28;;;;;;;11.50;7.35;;;;;;;;;;5021624;28;20032;-68
2021/11/21 07:45:54;;;;;;;9.20;6.00;;;;;;;;;;5029892;28;20029;-69
2021/11/21 07:48:20;;;;;;;12.50;6.95;;;;;;;;;;5027999;28;20048;-67
2021/11/21 07:50:45;;;;;;;9.23;6.30;;;;;;;;;;5019155;28;20029;-68
2021/11/21 07:53:10;;;;;;;11.02;6.68;;;;;;;;;;5025290;28;20072;-68
2021/11/21 07:55:35;;;;;;;9.13;6.53;;;;;;;;;;5021193;28;20090;-68
2021/11/21 07:58:01;;;;;;;10.98;7.15;;;;;;;;;;5030550;28;20385;-69
2021/11/21 08:00:26;;;;;;;10.18;6.25;;;;;;;;;;5027251;28;20398;-68
2021/11/21 08:02:52;;;;;;;8.05;5.43;;;;;;;;;;5027421;28;20036;-68
2021/11/21 08:05:17;;;;;;;9.82;6.43;;;;;;;;;;5025835;28;20128;-69
2021/11/21 08:07:42;;;;;;;9.75;6.50;;;;;;;;;;5028998;28;20546;-69
2021/11/21 08:10:08;;;;;;;7.80;5.68;;;;;;;;;;5023846;28;20485;-68
2021/11/21 08:12:34;;;;;;;7.60;5.35;;;;;;;;;;5027333;28;20025;-68
2021/11/21 08:14:59;;;;;;;8.25;5.68;;;;;;;;;;5029102;28;20026;-70
2021/11/21 08:17:24;;;;;;;8.63;6.05;;;;;;;;;;5029588;28;20385;-69
2021/11/21 08:19:49;;;;;;;8.57;5.93;;;;;;;;;;5023291;28;20392;-69
2021/11/21 08:22:14;;;;;;;7.93;5.95;;;;;;;;;;5029442;28;21200;-69
2021/11/21 08:24:40;;;;;;;9.32;6.43;;;;;;;;;;5026084;28;20020;-69
2021/11/21 08:27:05;;;;;;;10.23;7.03;;;;;;;;;;5028556;28;20053;-72
2021/11/21 08:29:30;;;;;;;8.57;6.28;;;;;;;;;;5027527;28;20036;-69
2021/11/21 08:31:56;;;;;;;8.98;6.40;;;;;;;;;;5026634;28;20451;-69
2021/11/21 08:34:21;;;;;;;7.82;6.00;;;;;;;;;;5027411;28;20398;-69
2021/11/21 08:36:47;;;;;;;8.40;6.10;;;;;;;;;;5021214;28;20056;-67
2021/11/21 08:39:12;;;;;;;8.23;5.90;;;;;;;;;;5023322;28;20083;-67
2021/11/21 08:41:37;;;;;;;8.52;6.10;;;;;;;;;;5026667;28;20408;-68
2021/11/21 08:44:03;;;;;;;7.95;5.38;;;;;;;;;;5026220;28;20396;-68
2021/11/21 08:46:28;;;;;;;7.20;5.30;;;;;;;;;;5024057;28;20040;-68
2021/11/21 08:48:54;;;;;;;7.68;5.90;;;;;;;;;;5024111;28;20445;-65
2021/11/21 08:51:20;;;;;;;6.68;5.32;;;;;;;;;;5020682;28;20037;-66
2021/11/21 08:53:46;;;;;;;7.15;5.78;;;;;;;;;;5027136;28;20405;-67
2021/11/21 08:56:12;;;;;;;9.27;5.40;;;;;;;;;;5024796;28;20512;-68
2021/11/21 08:58:37;;;;;;;7.57;5.50;;;;;;;;;;5028568;28;20155;-66
2021/11/21 09:01:03;;;;;;;7.85;5.75;;;;;;;;;;5025354;28;20079;-67
2021/11/21 09:03:29;;;;;;;7.78;5.45;;;;;;;;;;5027440;28;20468;-68
2021/11/21 09:05:55;;;;;;;8.30;5.43;;;;;;;;;;5027973;28;20049;-67
2021/11/21 09:08:20;;;;;;;8.23;5.53;;;;;;;;;;5026155;28;20033;-66
2021/11/21 09:10:45;;;;;;;7.80;5.47;;;;;;;;;;5023328;28;20034;-68
2021/11/21 09:13:11;;;;;;;7.57;5.68;;;;;;;;;;5024919;28;20026;-68
2021/11/21 09:15:37;;;;;;;7.38;5.40;;;;;;;;;;5028163;28;20497;-69
2021/11/21 09:18:02;;;;;;;7.72;5.32;;;;;;;;;;5028197;28;20072;-67
2021/11/21 09:20:28;;;;;;;6.88;4.90;;;;;;;;;;5028143;28;20112;-68
2021/11/21 09:22:53;;;;;;;7.53;5.07;;;;;;;;;;5026373;28;20025;-68
2021/11/21 09:25:19;;;;;;;6.63;4.32;;;;;;;;;;5030289;28;20021;-67
2021/11/21 09:27:44;;;;;;;7.47;4.90;;;;;;;;;;5030619;28;20037;-67
2021/11/21 09:30:10;;;;;;;8.02;4.90;;;;;;;;;;5034620;28;20082;-68
2021/11/21 09:32:36;;;;;;;6.68;4.70;;;;;;;;;;5025335;28;20484;-68
2021/11/21 09:35:03;;;;;;;6.45;4.65;;;;;;;;;;5024179;28;20032;-67
2021/11/21 09:37:28;;;;;;;6.90;4.70;;;;;;;;;;5028242;28;20030;-67
2021/11/21 09:39:54;;;;;;;8.32;5.57;;;;;;;;;;5024782;28;20044;-69
2021/11/21 09:42:19;;;;;;;7.68;4.97;;;;;;;;;;5028777;28;20025;-67
2021/11/21 09:44:44;;;;;;;6.45;4.75;;;;;;;;;;5029999;28;20029;-68
2021/11/21 09:47:11;;;;;;;6.15;5.00;;;;;;;;;;5025806;28;20430;-68
2021/11/21 09:49:36;;;;;;;5.85;4.50;;;;;;;;;;5028917;28;20151;-67
2021/11/21 09:52:02;;;;;;;6.38;4.63;;;;;;;;;;5027320;28;20068;-67
2021/11/21 09:54:28;;;;;;;6.63;4.80;;;;;;;;;;5027460;28;20045;-68
2021/11/21 09:56:54;;;;;;;6.03;4.20;;;;;;;;;;5023819;28;20033;-68
2021/11/21 09:59:38;;;;;;;6.60;4.57;;;;;;;;;;5031204;28;20029;-65
2021/11/21 10:02:15;;;;;;;6.70;5.07;;;;;;;;;;5023933;28;20125;-66
2021/11/21 10:04:41;;;;;;;5.85;4.32;;;;;;;;;;5023649;28;20540;-64
2021/11/21 10:07:18;;;;;;;6.07;4.68;;;;;;;;;;5028617;28;20052;-65
2021/11/21 10:09:43;;;;;;;6.25;4.53;;;;;;;;;;5030242;28;20037;-64
2021/11/21 10:12:08;;;;;;;6.55;4.78;;;;;;;;;;5030819;28;20032;-64
2021/11/21 10:14:51;;;;;;;7.03;5.03;;;;;;;;;;5029223;28;20040;-60
2021/11/21 10:17:17;;;;;;;10.77;4.93;;;;;;;;;;5027280;28;20053;-61
2021/11/21 10:20:01;;;;;;;9.38;5.07;;;;;;;;;;5024987;28;20517;-61
2021/11/21 10:22:44;;;;;;;7.93;5.10;;;;;;;;;;5024130;28;20470;-62
2021/11/21 10:25:10;;;;;;;7.10;5.32;;;;;;;;;;5030457;28;20033;-65
2021/11/21 10:27:35;;;;;;;6.82;5.28;;;;;;;;;;5026803;28;20036;-64
2021/11/21 10:30:01;;;;;;;7.25;4.88;;;;;;;;;;5029294;28;20083;-64
2021/11/21 10:32:30;;;;;;;6.65;4.70;;;;;;;;;;5027378;28;20032;-65
2021/11/21 10:34:57;;;;;;;7.22;4.80;;;;;;;;;;5028063;28;20116;-63
2021/11/21 10:37:30;;;;;;;7.07;4.72;;;;;;;;;;5018661;28;20022;-63
2021/11/21 10:39:59;;;;;;;6.82;4.90;;;;;;;;;;5029960;28;20033;-64
2021/11/21 10:42:24;;;;;;;7.87;5.20;;;;;;;;;;5020078;28;20029;-64
2021/11/21 10:44:50;;;;;;;7.93;5.05;;;;;;;;;;5029824;28;20338;-63
2021/11/21 10:47:15;;;;;;;6.63;5.15;;;;;;;;;;5027571;28;20389;-64
2021/11/21 10:49:40;;;;;;;7.93;5.35;;;;;;;;;;5029411;28;20032;-63
2021/11/21 10:52:08;;;;;;;8.30;5.18;;;;;;;;;;5028551;28;20018;-64
2021/11/21 10:54:39;;;;;;;7.78;5.53;;;;;;;;;;5017753;28;20382;-64
2021/11/21 10:57:05;;;;;;;8.05;5.68;;;;;;;;;;5030208;28;20025;-64
2021/11/21 10:59:37;;;;;;;8.75;6.13;;;;;;;;;;5029349;28;20025;-64
2021/11/21 11:02:06;;;;;;;9.07;6.18;;;;;;;;;;5027400;28;20028;-63
2021/11/21 11:04:31;;;;;;;9.20;5.50;;;;;;;;;;5025484;28;20017;-63
2021/11/21 11:07:09;;;;;;;9.27;5.63;;;;;;;;;;5023229;28;20049;-63
2021/11/21 11:09:34;;;;;;;7.70;5.43;;;;;;;;;;5016819;28;20022;-63
2021/11/21 11:12:00;;;;;;;8.02;5.60;;;;;;;;;;5024936;28;20037;-63
2021/11/21 11:14:25;;;;;;;9.27;5.97;;;;;;;;;;5023943;28;20052;-64
2021/11/21 11:16:54;;;;;;;9.13;5.85;;;;;;;;;;5024363;28;20049;-62
2021/11/21 11:19:19;;;;;;;7.93;5.45;;;;;;;;;;5028342;28;20018;-64
2021/11/21 11:21:46;;;;;;;8.38;5.88;;;;;;;;;;5023728;28;20377;-64
2021/11/21 11:24:12;;;;;;;8.80;5.97;;;;;;;;;;5024432;28;20021;-63
2021/11/21 11:26:37;;;;;;;9.02;6.05;;;;;;;;;;5027307;28;20032;-64
2021/11/21 11:29:05;;;;;;;9.43;6.10;;;;;;;;;;5026634;28;20029;-62
2021/11/21 11:31:32;;;;;;;8.40;5.68;;;;;;;;;;5033335;28;20033;-64
2021/11/21 11:34:00;;;;;;;8.65;6.32;;;;;;;;;;5028045;28;20384;-62
2021/11/21 11:36:26;;;;;;;8.40;6.10;;;;;;;;;;5028786;28;20108;-63
2021/11/21 11:39:05;;;;;;;10.25;7.45;;;;;;;;;;5024082;28;20120;-63
2021/11/21 11:41:31;;;;;;;10.85;7.13;;;;;;;;;;5029105;28;20083;-64
2021/11/21 11:43:57;;;;;;;11.40;7.28;;;;;;;;;;5023234;28;20030;-65
2021/11/21 11:46:24;;;;;;;12.00;7.50;;;;;;;;;;5027914;28;20040;-62
2021/11/21 11:49:04;;;;;;;9.60;7.15;;;;;;;;;;5027797;28;20049;-63
2021/11/21 11:51:29;;;;;;;12.10;7.65;;;;;;;;;;5028932;28;20101;-64
2021/11/21 11:54:01;;;;;;;11.63;8.35;;;;;;;;;;5024885;28;20373;-64
2021/11/21 11:56:43;;;;;;;12.20;8.70;;;;;;;;;;5028954;28;20047;-63
2021/11/21 11:59:09;;;;;;;13.07;8.88;;;;;;;;;;5021447;28;20033;-64
2021/11/21 12:01:42;;;;;;;15.35;9.90;;;;;;;;;;5030310;28;20481;-63
2021/11/21 12:04:07;;;;;;;12.95;9.60;;;;;;;;;;5027760;28;20026;-64
2021/11/21 12:06:44;;;;;;;18.00;11.20;;;;;;;;;;5028367;28;20107;-63
2021/11/21 12:09:16;;;;;;;15.90;10.85;;;;;;;;;;5022468;28;20041;-62
2021/11/21 12:11:57;;;;;;;17.73;10.63;;;;;;;;;;5020102;28;20102;-63
2021/11/21 12:14:32;;;;;;;14.75;10.85;;;;;;;;;;5023730;28;20028;-63
2021/11/21 12:17:04;;;;;;;16.77;10.88;;;;;;;;;;5026039;28;20076;-63
2021/11/21 12:19:40;;;;;;;17.20;11.55;;;;;;;;;;5024168;28;20040;-64
2021/11/21 12:22:06;;;;;;;19.40;11.65;;;;;;;;;;5025334;28;20033;-67
2021/11/21 12:24:32;;;;;;;17.85;12.23;;;;;;;;;;5024923;28;20036;-65
2021/11/21 12:26:59;;;;;;;19.05;11.90;;;;;;;;;;5026735;28;20025;-63
2021/11/21 12:29:29;;;;;;;16.08;10.85;;;;;;;;;;5024143;28;20022;-63
2021/11/21 12:31:54;;;;;;;20.17;12.43;;;;;;;;;;5025708;28;20030;-63
2021/11/21 12:34:26;;;;;;;21.45;12.88;;;;;;;;;;5024794;28;20874;-63
2021/11/21 12:37:11;;;;;;;20.70;13.52;;;;;;;;;;5026977;28;20029;-64
2021/11/21 12:39:37;;;;;;;18.95;12.73;;;;;;;;;;5027305;28;20511;-64
2021/11/21 12:42:04;;;;;;;20.80;13.57;;;;;;;;;;5021126;28;20108;-64
2021/11/21 12:44:29;;;;;;;22.80;13.95;;;;;;;;;;5026262;28;20031;-63
2021/11/21 12:46:59;;;;;;;24.13;14.48;;;;;;;;;;5022450;28;20105;-63
2021/11/21 12:49:24;;;;;;;24.13;13.80;;;;;;;;;;5027393;28;20052;-63
2021/11/21 12:52:05;;;;;;;23.40;14.63;;;;;;;;;;5020537;28;20029;-63
2021/11/21 12:54:31;;;;;;;22.73;14.60;;;;;;;;;;5018989;28;20495;-63
2021/11/21 12:56:57;;;;;;;25.13;15.02;;;;;;;;;;5028595;28;20025;-63
2021/11/21 12:59:42;;;;;;;25.90;15.13;;;;;;;;;;5028980;28;20985;-63
2021/11/21 13:02:07;;;;;;;23.42;14.73;;;;;;;;;;5031583;28;20373;-63
2021/11/21 13:04:51;;;;;;;24.13;15.60;;;;;;;;;;5036567;28;20013;-63
2021/11/21 13:07:24;;;;;;;23.42;14.43;;;;;;;;;;5026329;28;20530;-64
2021/11/21 13:09:56;;;;;;;22.02;14.18;;;;;;;;;;5031876;28;20021;-64
2021/11/21 13:12:25;;;;;;;24.77;14.15;;;;;;;;;;5031817;28;20033;-63
2021/11/21 13:15:01;;;;;;;25.23;15.75;;;;;;;;;;5032034;28;20098;-63
2021/11/21 13:17:27;;;;;;;24.30;14.55;;;;;;;;;;5030790;28;20108;-63
2021/11/21 13:20:01;;;;;;;24.90;14.98;;;;;;;;;;5031324;28;20105;-63
2021/11/21 13:22:46;;;;;;;27.25;14.98;;;;;;;;;;5023452;28;20033;-64
2021/11/21 13:25:25;;;;;;;22.85;14.68;;;;;;;;;;5028901;28;20029;-63
2021/11/21 13:27:50;;;;;;;25.27;15.70;;;;;;;;;;5030830;28;20522;-63
2021/11/21 13:30:18;;;;;;;25.70;15.02;;;;;;;;;;5025020;28;20021;-64
2021/11/21 13:32:43;;;;;;;27.75;15.32;;;;;;;;;;5031276;28;20029;-63
2021/11/21 13:35:16;;;;;;;26.92;16.00;;;;;;;;;;5031683;28;20537;-65
2021/11/21 13:37:41;;;;;;;22.58;14.35;;;;;;;;;;5031772;28;20083;-63
2021/11/21 13:40:06;;;;;;;25.02;15.27;;;;;;;;;;5021356;28;20026;-65
2021/11/21 13:42:31;;;;;;;24.58;14.15;;;;;;;;;;5019632;28;20025;-63
2021/11/21 13:44:57;;;;;;;26.65;14.85;;;;;;;;;;5031687;28;20018;-63
2021/11/21 13:47:26;;;;;;;24.08;14.52;;;;;;;;;;5031618;28;20021;-63
2021/11/21 13:49:51;;;;;;;;;;;;;;;;;;5031017;28;20032;-62
2021/11/21 13:52:18;;;;;;;24.55;14.80;;;;;;;;;;5031116;28;19912;-64
2021/11/21 13:54:46;;;;;;;23.77;14.73;;;;;;;;;;5031166;28;20260;-64
2021/11/21 13:57:26;;;;;;;25.15;14.23;;;;;;;;;;5030858;28;20025;-65
2021/11/21 13:59:51;;;;;;;;;;;;;;;;;;5032269;28;20062;-62
2021/11/21 14:02:26;;;;;;;23.17;14.93;;;;;;;;;;5025492;28;19909;-64
2021/11/21 14:04:55;;;;;;;24.25;14.73;;;;;;;;;;5023653;28;20029;-64
2021/11/21 14:07:20;;;;;;;25.05;14.68;;;;;;;;;;5019520;28;20841;-62
2021/11/21 14:09:53;;;;;;;23.83;13.90;;;;;;;;;;5030279;28;20021;-63
2021/11/21 14:12:31;;;;;;;27.88;14.88;;;;;;;;;;5026973;28;20094;-63
2021/11/21 14:15:02;;;;;;;24.20;14.55;;;;;;;;;;5027624;28;20079;-64
2021/11/21 14:17:28;;;;;;;24.83;13.88;;;;;;;;;;5017756;28;20021;-64
2021/11/21 14:19:53;;;;;;;27.35;15.65;;;;;;;;;;5021064;28;20018;-63
2021/11/21 14:22:20;;;;;;;24.23;14.32;;;;;;;;;;5030415;28;20381;-64
2021/11/21 14:24:46;;;;;;;21.42;13.80;;;;;;;;;;5023351;28;20022;-63
2021/11/21 14:27:11;;;;;;;23.60;14.65;;;;;;;;;;5030698;28;20029;-63